createdAt,value
2023-03-15T00:00:22.464Z,1.36
2023-03-15T00:01:22.328Z,1.33
2023-03-15T00:02:22.393Z,1.32
2023-03-15T00:03:22.311Z,1.33
2023-03-15T00:04:22.289Z,1.33
2023-03-15T00:05:22.219Z,1.32
2023-03-15T00:06:22.341Z,1.29
2023-03-15T00:07:22.204Z,1.26
2023-03-15T00:08:22.791Z,1.21
2023-03-15T00:09:22.217Z,1.19
2023-03-15T00:10:22.283Z,1.19
2023-03-15T00:11:22.340Z,1.24
2023-03-15T00:12:22.184Z,1.26
2023-03-15T00:13:22.226Z,1.32
2023-03-15T00:14:22.148Z,1.32
2023-03-15T00:15:22.295Z,1.25
2023-03-15T00:16:22.109Z,1.18
2023-03-15T00:17:22.178Z,1.14
2023-03-15T00:18:22.092Z,1.15
2023-03-15T00:19:22.945Z,1.22
2023-03-15T00:20:22.040Z,1.22
2023-03-15T00:21:22.061Z,1.16
2023-03-15T00:22:22.033Z,1.15
2023-03-15T00:23:23.070Z,1.16
2023-03-15T00:24:24.015Z,1.22
2023-03-15T00:25:22.874Z,1.19
2023-03-15T00:26:22.454Z,1.19
2023-03-15T00:27:22.031Z,1.15
2023-03-15T00:28:21.971Z,1.12
2023-03-15T00:29:21.935Z,1.15
2023-03-15T00:30:21.981Z,1.14
2023-03-15T00:31:22.537Z,1.16
2023-03-15T00:32:21.963Z,1.21
2023-03-15T00:33:21.892Z,1.22
2023-03-15T00:34:23.034Z,1.19
2023-03-15T00:35:21.877Z,1.15
2023-03-15T00:36:21.942Z,1.18
2023-03-15T00:37:22.749Z,1.18
2023-03-15T00:38:22.007Z,1.15
2023-03-15T00:39:21.802Z,1.10
2023-03-15T00:40:21.809Z,1.04
2023-03-15T00:41:21.764Z,0.98
2023-03-15T00:42:21.753Z,0.92
2023-03-15T00:43:22.694Z,0.88
2023-03-15T00:44:21.822Z,0.83
2023-03-15T00:45:21.780Z,0.86
2023-03-15T00:46:21.716Z,0.94
2023-03-15T00:47:21.679Z,1.00
2023-03-15T00:48:22.714Z,1.00
2023-03-15T00:49:21.671Z,1.00
2023-03-15T00:50:21.747Z,0.98
2023-03-15T00:51:22.037Z,0.96
2023-03-15T00:52:22.380Z,0.92
2023-03-15T00:53:21.588Z,0.89
2023-03-15T00:54:21.592Z,0.88
2023-03-15T00:55:22.575Z,0.83
2023-03-15T00:56:22.397Z,0.83
2023-03-15T00:57:21.536Z,0.76
2023-03-15T00:58:23.521Z,0.76
2023-03-15T00:59:21.654Z,0.80
2023-03-15T01:00:21.554Z,0.80
2023-03-15T01:01:22.520Z,0.78
2023-03-15T01:02:21.522Z,0.76
2023-03-15T01:03:21.476Z,0.72
2023-03-15T01:04:21.512Z,0.72
2023-03-15T01:05:22.620Z,0.75
2023-03-15T01:06:22.523Z,0.82
2023-03-15T01:07:21.447Z,0.88
2023-03-15T01:08:22.327Z,0.92
2023-03-15T01:09:21.389Z,0.89
2023-03-15T01:10:21.430Z,0.89
2023-03-15T01:11:21.381Z,0.89
2023-03-15T01:12:22.455Z,0.94
2023-03-15T01:13:21.355Z,1.03
2023-03-15T01:14:21.322Z,1.08
2023-03-15T01:15:21.336Z,1.08
2023-03-15T01:16:21.397Z,1.08
2023-03-15T01:17:22.130Z,1.06
2023-03-15T01:18:21.406Z,1.07
2023-03-15T01:19:21.376Z,1.07
2023-03-15T01:20:22.198Z,1.07
2023-03-15T01:21:21.404Z,1.06
2023-03-15T01:22:21.232Z,1.08
2023-03-15T01:23:21.277Z,1.08
2023-03-15T01:24:21.244Z,1.08
2023-03-15T01:25:21.213Z,1.04
2023-03-15T01:26:21.226Z,1.06
2023-03-15T01:27:21.449Z,1.04
2023-03-15T01:28:21.151Z,1.10
2023-03-15T01:29:22.363Z,1.14
2023-03-15T01:30:21.143Z,1.18
2023-03-15T01:31:21.351Z,1.16
2023-03-15T01:32:21.171Z,1.18
2023-03-15T01:33:21.197Z,1.21
2023-03-15T01:34:21.086Z,1.16
2023-03-15T01:35:21.077Z,1.16
2023-03-15T01:36:21.123Z,1.15
2023-03-15T01:37:21.135Z,1.12
2023-03-15T01:38:21.066Z,1.14
2023-03-15T01:39:21.144Z,1.12
2023-03-15T01:40:21.060Z,1.12
2023-03-15T01:41:22.027Z,1.10
2023-03-15T01:42:20.978Z,1.12
2023-03-15T01:43:21.004Z,1.10
2023-03-15T01:44:21.007Z,1.15
2023-03-15T01:45:21.060Z,1.18
2023-03-15T01:46:21.411Z,1.18
2023-03-15T01:47:20.913Z,1.16
2023-03-15T01:48:20.926Z,1.18
2023-03-15T01:49:21.058Z,1.16
2023-03-15T01:50:21.895Z,1.12
2023-03-15T01:51:21.480Z,1.10
2023-03-15T01:52:21.695Z,1.16
2023-03-15T01:53:20.825Z,1.21
2023-03-15T01:54:21.154Z,1.26
2023-03-15T01:55:21.956Z,1.32
2023-03-15T01:56:20.932Z,1.33
2023-03-15T01:57:20.865Z,1.33
2023-03-15T01:58:21.624Z,1.32
2023-03-15T01:59:20.757Z,1.29
2023-03-15T02:00:20.837Z,1.32
2023-03-15T02:01:20.844Z,1.33
2023-03-15T02:02:21.636Z,1.43
2023-03-15T02:03:20.707Z,1.46
2023-03-15T02:04:20.695Z,1.46
2023-03-15T02:05:20.717Z,1.46
2023-03-15T02:06:20.769Z,1.47
2023-03-15T02:07:20.700Z,1.50
2023-03-15T02:08:20.648Z,1.47
2023-03-15T02:09:20.643Z,1.44
2023-03-15T02:10:20.629Z,1.50
2023-03-15T02:11:20.614Z,1.46
2023-03-15T02:12:20.608Z,1.54
2023-03-15T02:13:20.601Z,1.55
2023-03-15T02:14:20.609Z,1.60
2023-03-15T02:15:21.526Z,1.62
2023-03-15T02:16:21.492Z,1.65
2023-03-15T02:17:20.734Z,1.71
2023-03-15T02:18:20.688Z,1.75
2023-03-15T02:19:20.518Z,1.73
2023-03-15T02:20:21.973Z,1.80
2023-03-15T02:21:20.511Z,1.82
2023-03-15T02:22:20.463Z,1.85
2023-03-15T02:23:20.949Z,1.80
2023-03-15T02:24:20.464Z,1.82
2023-03-15T02:25:20.474Z,1.82
2023-03-15T02:26:21.496Z,1.80
2023-03-15T02:27:20.445Z,1.82
2023-03-15T02:28:20.468Z,1.80
2023-03-15T02:29:20.423Z,1.82
2023-03-15T02:30:20.369Z,1.82
2023-03-15T02:31:20.613Z,1.80
2023-03-15T02:32:20.347Z,1.76
2023-03-15T02:33:20.433Z,1.72
2023-03-15T02:34:20.353Z,1.69
2023-03-15T02:35:20.351Z,1.65
2023-03-15T02:36:20.298Z,1.62
2023-03-15T02:37:20.289Z,1.64
2023-03-15T02:38:20.507Z,1.65
2023-03-15T02:39:20.372Z,1.71
2023-03-15T02:40:20.235Z,1.72
2023-03-15T02:41:21.107Z,1.72
2023-03-15T02:42:20.255Z,1.73
2023-03-15T02:43:20.824Z,1.71
2023-03-15T02:44:20.258Z,1.64
2023-03-15T02:45:20.195Z,1.62
2023-03-15T02:46:20.232Z,1.58
2023-03-15T02:47:20.260Z,1.54
2023-03-15T02:48:20.139Z,1.51
2023-03-15T02:49:20.144Z,1.54
2023-03-15T02:50:20.101Z,1.57
2023-03-15T02:51:20.113Z,1.52
2023-03-15T02:52:20.086Z,1.50
2023-03-15T02:53:20.179Z,1.43
2023-03-15T02:54:20.085Z,1.40
2023-03-15T02:55:20.207Z,1.36
2023-03-15T02:56:20.106Z,1.32
2023-03-15T02:57:20.141Z,1.29
2023-03-15T02:58:20.095Z,1.28
2023-03-15T02:59:20.186Z,1.36
2023-03-15T03:00:20.039Z,1.34
2023-03-15T03:01:20.070Z,1.32
2023-03-15T03:02:20.024Z,1.26
2023-03-15T03:03:19.946Z,1.29
2023-03-15T03:04:19.936Z,1.29
2023-03-15T03:05:19.952Z,1.29
2023-03-15T03:06:20.008Z,1.39
2023-03-15T03:07:21.147Z,1.37
2023-03-15T03:08:20.023Z,1.34
2023-03-15T03:09:20.466Z,1.33
2023-03-15T03:10:19.900Z,1.32
2023-03-15T03:11:19.990Z,1.28
2023-03-15T03:12:20.782Z,1.28
2023-03-15T03:13:19.829Z,1.26
2023-03-15T03:14:19.814Z,1.25
2023-03-15T03:15:19.829Z,1.24
2023-03-15T03:16:20.812Z,1.22
2023-03-15T03:17:19.791Z,1.16
2023-03-15T03:18:19.759Z,1.15
2023-03-15T03:19:19.844Z,1.12
2023-03-15T03:20:19.958Z,1.07
2023-03-15T03:21:19.775Z,1.06
2023-03-15T03:22:19.713Z,1.07
2023-03-15T03:23:19.746Z,1.03
2023-03-15T03:24:20.651Z,1.04
2023-03-15T03:25:19.691Z,1.03
2023-03-15T03:26:20.859Z,1.00
2023-03-15T03:27:19.708Z,0.97
2023-03-15T03:28:19.667Z,0.92
2023-03-15T03:29:19.647Z,0.96
2023-03-15T03:30:19.697Z,0.98
2023-03-15T03:31:19.623Z,0.98
2023-03-15T03:32:20.844Z,1.01
2023-03-15T03:33:19.599Z,0.97
2023-03-15T03:34:19.596Z,0.96
2023-03-15T03:35:19.638Z,0.88
2023-03-15T03:36:20.314Z,0.83
2023-03-15T03:37:20.338Z,0.82
2023-03-15T03:38:19.484Z,0.78
2023-03-15T03:39:19.514Z,0.78
2023-03-15T03:40:20.538Z,0.72
2023-03-15T03:41:19.543Z,0.68
2023-03-15T03:42:19.656Z,0.64
2023-03-15T03:43:19.456Z,0.61
2023-03-15T03:44:19.441Z,0.62
2023-03-15T03:45:20.571Z,0.64
2023-03-15T03:46:20.947Z,0.61
2023-03-15T03:47:19.421Z,0.62
2023-03-15T03:48:19.363Z,0.60
2023-03-15T03:49:19.429Z,0.57
2023-03-15T03:50:19.488Z,0.51
2023-03-15T03:51:19.343Z,0.48
2023-03-15T03:52:19.327Z,0.42
2023-03-15T03:53:19.361Z,0.41
2023-03-15T03:54:19.554Z,0.34
2023-03-15T03:55:19.364Z,0.31
2023-03-15T03:56:20.744Z,0.39
2023-03-15T03:57:19.534Z,0.43
2023-03-15T03:58:19.280Z,0.39
2023-03-15T03:59:19.308Z,0.42
2023-03-15T04:00:19.217Z,0.43
2023-03-15T04:01:19.261Z,0.49
2023-03-15T04:02:20.010Z,0.48
2023-03-15T04:03:19.225Z,0.49
2023-03-15T04:04:19.187Z,0.49
2023-03-15T04:05:19.202Z,0.49
2023-03-15T04:06:19.164Z,0.51
2023-03-15T04:07:19.121Z,0.48
2023-03-15T04:08:19.206Z,0.51
2023-03-15T04:09:19.144Z,0.60
2023-03-15T04:10:19.138Z,0.61
2023-03-15T04:11:19.207Z,0.67
2023-03-15T04:12:19.203Z,0.71
2023-03-15T04:13:19.087Z,0.72
2023-03-15T04:14:19.840Z,0.78
2023-03-15T04:15:19.060Z,0.79
2023-03-15T04:16:19.149Z,0.82
2023-03-15T04:17:19.002Z,0.85
2023-03-15T04:18:18.996Z,0.88
2023-03-15T04:19:18.970Z,0.89
2023-03-15T04:20:18.958Z,0.98
2023-03-15T04:21:18.959Z,1.12
2023-03-15T04:22:18.993Z,1.16
2023-03-15T04:23:19.990Z,1.15
2023-03-15T04:24:18.913Z,1.21
2023-03-15T04:25:18.917Z,1.29
2023-03-15T04:26:19.714Z,1.29
2023-03-15T04:27:20.118Z,1.37
2023-03-15T04:28:19.054Z,1.44
2023-03-15T04:29:18.881Z,1.52
2023-03-15T04:30:18.839Z,1.57
2023-03-15T04:31:19.204Z,1.62
2023-03-15T04:32:18.831Z,1.64
2023-03-15T04:33:18.849Z,1.68
2023-03-15T04:34:18.845Z,1.68
2023-03-15T04:35:19.867Z,1.68
2023-03-15T04:36:18.833Z,1.68
2023-03-15T04:37:18.818Z,1.71
2023-03-15T04:38:18.807Z,1.79
2023-03-15T04:39:18.755Z,1.82
2023-03-15T04:40:18.731Z,1.83
2023-03-15T04:41:18.755Z,1.89
2023-03-15T04:42:18.697Z,1.91
2023-03-15T04:43:18.677Z,1.99
2023-03-15T04:44:18.666Z,2.01
2023-03-15T04:45:18.678Z,2.01
2023-03-15T04:46:18.737Z,2.02
2023-03-15T04:47:18.614Z,2.10
2023-03-15T04:48:18.607Z,2.15
2023-03-15T04:49:18.621Z,2.15
2023-03-15T04:50:18.637Z,2.16
2023-03-15T04:51:18.665Z,2.22
2023-03-15T04:52:18.573Z,2.23
2023-03-15T04:53:18.567Z,2.26
2023-03-15T04:54:18.516Z,2.28
2023-03-15T04:55:18.548Z,2.27
2023-03-15T04:56:18.600Z,2.27
2023-03-15T04:57:20.037Z,2.28
2023-03-15T04:58:18.616Z,2.26
2023-03-15T04:59:18.477Z,2.27
2023-03-15T05:00:18.448Z,2.28
2023-03-15T05:01:19.432Z,2.31
2023-03-15T05:02:19.376Z,2.31
2023-03-15T05:03:18.411Z,2.33
2023-03-15T05:04:18.427Z,2.33
2023-03-15T05:05:18.406Z,2.35
2023-03-15T05:06:18.390Z,2.37
2023-03-15T05:07:18.559Z,2.37
2023-03-15T05:08:18.377Z,2.37
2023-03-15T05:09:18.328Z,2.37
2023-03-15T05:10:18.350Z,2.38
2023-03-15T05:11:18.428Z,2.41
2023-03-15T05:12:18.362Z,2.38
2023-03-15T05:13:18.311Z,2.37
2023-03-15T05:14:18.270Z,2.38
2023-03-15T05:15:19.232Z,2.37
2023-03-15T05:16:18.539Z,2.38
2023-03-15T05:17:18.607Z,2.35
2023-03-15T05:18:18.288Z,2.34
2023-03-15T05:19:18.210Z,2.35
2023-03-15T05:20:18.192Z,2.34
2023-03-15T05:21:18.198Z,2.35
2023-03-15T05:22:19.135Z,2.37
2023-03-15T05:23:18.410Z,2.37
2023-03-15T05:24:18.166Z,2.35
2023-03-15T05:25:18.146Z,2.35
2023-03-15T05:26:18.293Z,2.35
2023-03-15T05:27:18.205Z,2.37
2023-03-15T05:28:18.091Z,2.37
2023-03-15T05:29:18.130Z,2.37
2023-03-15T05:30:18.175Z,2.44
2023-03-15T05:31:18.096Z,2.41
2023-03-15T05:32:19.073Z,2.41
2023-03-15T05:33:18.075Z,2.44
2023-03-15T05:34:18.032Z,2.41
2023-03-15T05:35:18.030Z,2.40
2023-03-15T05:36:19.142Z,2.40
2023-03-15T05:37:18.040Z,2.41
2023-03-15T05:38:18.013Z,2.44
2023-03-15T05:39:17.940Z,2.40
2023-03-15T05:40:17.943Z,2.37
2023-03-15T05:41:17.966Z,2.37
2023-03-15T05:42:17.945Z,2.41
2023-03-15T05:43:17.942Z,2.44
2023-03-15T05:44:17.911Z,2.45
2023-03-15T05:45:18.006Z,2.44
2023-03-15T05:46:17.937Z,2.40
2023-03-15T05:47:17.880Z,2.44
2023-03-15T05:48:17.908Z,2.44
2023-03-15T05:49:17.830Z,2.40
2023-03-15T05:50:17.796Z,2.38
2023-03-15T05:51:17.846Z,2.35
2023-03-15T05:52:17.806Z,2.34
2023-03-15T05:53:17.791Z,2.34
2023-03-15T05:54:17.775Z,2.34
2023-03-15T05:55:17.763Z,2.34
2023-03-15T05:56:17.751Z,2.33
2023-03-15T05:57:17.744Z,2.33
2023-03-15T05:58:17.740Z,2.31
2023-03-15T05:59:17.698Z,2.33
2023-03-15T06:00:17.756Z,2.33
2023-03-15T06:01:17.670Z,2.31
2023-03-15T06:02:17.650Z,2.28
2023-03-15T06:03:17.825Z,2.30
2023-03-15T06:04:17.718Z,2.28
2023-03-15T06:05:17.671Z,2.33
2023-03-15T06:06:17.642Z,2.34
2023-03-15T06:07:17.594Z,2.34
2023-03-15T06:08:17.643Z,2.35
2023-03-15T06:09:17.609Z,2.37
2023-03-15T06:10:17.642Z,2.37
2023-03-15T06:11:17.601Z,2.38
2023-03-15T06:12:17.551Z,2.40
2023-03-15T06:13:18.375Z,2.40
2023-03-15T06:14:17.533Z,2.40
2023-03-15T06:15:17.579Z,2.44
2023-03-15T06:16:17.583Z,2.46
2023-03-15T06:17:17.460Z,2.49
2023-03-15T06:18:17.494Z,2.49
2023-03-15T06:19:17.475Z,2.49
2023-03-15T06:20:17.480Z,2.49
2023-03-15T06:21:17.435Z,2.51
2023-03-15T06:22:18.302Z,2.51
2023-03-15T06:23:17.547Z,2.51
2023-03-15T06:24:17.403Z,2.51
2023-03-15T06:25:17.401Z,2.51
2023-03-15T06:26:17.400Z,2.52
2023-03-15T06:27:17.514Z,2.52
2023-03-15T06:28:17.360Z,2.53
2023-03-15T06:29:17.313Z,2.52
2023-03-15T06:30:17.317Z,2.51
2023-03-15T06:31:17.495Z,2.51
2023-03-15T06:32:17.308Z,2.52
2023-03-15T06:33:17.276Z,2.52
2023-03-15T06:34:17.244Z,2.55
2023-03-15T06:35:17.269Z,2.56
2023-03-15T06:36:17.218Z,2.55
2023-03-15T06:37:28.903Z,2.56
2023-03-15T06:38:18.268Z,2.56
2023-03-15T06:39:17.220Z,2.52
2023-03-15T06:40:17.183Z,2.51
2023-03-15T06:41:17.144Z,2.49
2023-03-15T06:42:17.171Z,2.48
2023-03-15T06:43:17.182Z,2.45
2023-03-15T06:44:17.123Z,2.41
2023-03-15T06:45:17.145Z,2.38
2023-03-15T06:46:18.077Z,2.37
2023-03-15T06:47:17.108Z,2.38
2023-03-15T06:48:17.253Z,2.38
2023-03-15T06:49:17.094Z,2.40
2023-03-15T06:50:17.072Z,2.41
2023-03-15T06:51:17.089Z,2.45
2023-03-15T06:52:17.021Z,2.45
2023-03-15T06:53:17.012Z,2.46
2023-03-15T06:54:17.036Z,2.48
2023-03-15T06:55:17.044Z,2.49
2023-03-15T06:56:18.114Z,2.55
2023-03-15T06:57:16.993Z,2.64
2023-03-15T06:58:16.996Z,2.69
2023-03-15T06:59:17.011Z,2.73
2023-03-15T07:00:16.941Z,2.77
2023-03-15T07:01:16.983Z,2.77
2023-03-15T07:02:17.003Z,2.77
2023-03-15T07:03:16.919Z,2.77
2023-03-15T07:04:17.864Z,2.79
2023-03-15T07:05:16.857Z,2.79
2023-03-15T07:06:17.661Z,2.81
2023-03-15T07:07:16.840Z,2.82
2023-03-15T07:08:17.361Z,2.82
2023-03-15T07:09:17.376Z,2.88
2023-03-15T07:10:16.828Z,3.00
2023-03-15T07:11:16.807Z,3.16
2023-03-15T07:12:16.822Z,3.28
2023-03-15T07:13:16.805Z,3.34
2023-03-15T07:14:16.769Z,3.43
2023-03-15T07:15:17.545Z,3.52
2023-03-15T07:16:17.501Z,3.47
2023-03-15T07:17:16.724Z,3.43
2023-03-15T07:18:16.694Z,3.42
2023-03-15T07:19:16.734Z,3.46
2023-03-15T07:20:16.718Z,3.42
2023-03-15T07:21:16.645Z,3.40
2023-03-15T07:22:16.659Z,3.43
2023-03-15T07:23:16.642Z,3.47
2023-03-15T07:24:16.684Z,3.52
2023-03-15T07:25:16.598Z,3.58
2023-03-15T07:26:17.549Z,3.54
2023-03-15T07:27:19.193Z,3.58
2023-03-15T07:28:16.730Z,3.61
2023-03-15T07:29:16.572Z,3.62
2023-03-15T07:30:16.697Z,3.68
2023-03-15T07:31:16.596Z,3.75
2023-03-15T07:32:16.608Z,3.79
2023-03-15T07:33:16.530Z,3.80
2023-03-15T07:34:16.501Z,3.86
2023-03-15T07:35:16.448Z,3.86
2023-03-15T07:36:16.493Z,3.89
2023-03-15T07:37:16.457Z,3.90
2023-03-15T07:38:16.848Z,3.94
2023-03-15T07:39:16.661Z,3.96
2023-03-15T07:40:16.476Z,3.85
2023-03-15T07:41:16.448Z,3.86
2023-03-15T07:42:16.404Z,3.85
2023-03-15T07:43:16.381Z,3.83
2023-03-15T07:44:16.366Z,3.79
2023-03-15T07:45:16.334Z,3.78
2023-03-15T07:46:16.450Z,3.80
2023-03-15T07:47:16.895Z,3.82
2023-03-15T07:48:16.335Z,3.76
2023-03-15T07:49:16.364Z,3.70
2023-03-15T07:50:17.292Z,3.67
2023-03-15T07:51:16.276Z,3.62
2023-03-15T07:52:16.255Z,3.57
2023-03-15T07:53:16.293Z,3.57
2023-03-15T07:54:16.315Z,3.58
2023-03-15T07:55:17.162Z,3.62
2023-03-15T07:56:16.281Z,3.65
2023-03-15T07:57:16.202Z,3.65
2023-03-15T07:58:17.968Z,3.65
2023-03-15T07:59:16.156Z,3.67
2023-03-15T08:00:16.187Z,3.75
2023-03-15T08:01:16.218Z,3.72
2023-03-15T08:02:16.161Z,3.79
2023-03-15T08:03:16.220Z,3.80
2023-03-15T08:04:16.166Z,3.83
2023-03-15T08:05:16.106Z,3.85
2023-03-15T08:06:16.286Z,3.86
2023-03-15T08:07:16.085Z,3.88
2023-03-15T08:08:16.127Z,3.88
2023-03-15T08:09:16.045Z,3.92
2023-03-15T08:10:16.079Z,3.98
2023-03-15T08:11:16.016Z,4.04
2023-03-15T08:12:16.095Z,4.12
2023-03-15T08:13:16.055Z,4.16
2023-03-15T08:14:16.061Z,4.12
2023-03-15T08:15:16.242Z,4.18
2023-03-15T08:16:16.225Z,4.19
2023-03-15T08:17:15.949Z,4.10
2023-03-15T08:18:15.929Z,4.15
2023-03-15T08:19:15.942Z,4.14
2023-03-15T08:20:15.899Z,4.16
2023-03-15T08:21:15.873Z,4.36
2023-03-15T08:22:15.878Z,4.46
2023-03-15T08:23:15.838Z,4.54
2023-03-15T08:24:15.861Z,4.55
2023-03-15T08:25:15.900Z,4.57
2023-03-15T08:26:15.873Z,4.59
2023-03-15T08:27:15.802Z,4.62
2023-03-15T08:28:15.800Z,4.61
2023-03-15T08:29:15.778Z,4.54
2023-03-15T08:30:15.840Z,4.52
2023-03-15T08:31:15.823Z,4.52
2023-03-15T08:32:15.760Z,4.50
2023-03-15T08:33:16.307Z,4.46
2023-03-15T08:34:16.178Z,4.54
2023-03-15T08:35:16.138Z,4.52
2023-03-15T08:36:15.709Z,4.42
2023-03-15T08:37:15.700Z,4.33
2023-03-15T08:38:15.678Z,4.28
2023-03-15T08:39:15.646Z,4.26
2023-03-15T08:40:15.652Z,4.24
2023-03-15T08:41:18.330Z,4.16
2023-03-15T08:42:16.662Z,4.10
2023-03-15T08:43:15.601Z,4.06
2023-03-15T08:44:15.574Z,4.04
2023-03-15T08:45:15.677Z,4.06
2023-03-15T08:46:15.668Z,4.07
2023-03-15T08:47:15.594Z,4.04
2023-03-15T08:48:15.551Z,4.10
2023-03-15T08:49:15.528Z,4.19
2023-03-15T08:50:15.576Z,4.22
2023-03-15T08:51:15.513Z,4.29
2023-03-15T08:52:17.708Z,4.34
2023-03-15T08:53:15.539Z,4.40
2023-03-15T08:54:15.510Z,4.46
2023-03-15T08:55:15.717Z,4.54
2023-03-15T08:56:15.512Z,4.52
2023-03-15T08:57:15.445Z,4.61
2023-03-15T08:58:15.470Z,4.75
2023-03-15T08:59:29.035Z,4.89
2023-03-15T09:00:16.634Z,4.95
2023-03-15T09:01:15.538Z,4.98
2023-03-15T09:02:15.477Z,5.01
2023-03-15T09:03:15.600Z,5.02
2023-03-15T09:04:15.412Z,5.14
2023-03-15T09:05:16.472Z,5.07
2023-03-15T09:06:16.380Z,5.07
2023-03-15T09:07:16.238Z,4.98
2023-03-15T09:08:15.401Z,4.92
2023-03-15T09:09:15.678Z,4.92
2023-03-15T09:10:15.265Z,4.89
2023-03-15T09:11:15.261Z,4.84
2023-03-15T09:12:15.349Z,4.76
2023-03-15T09:13:15.241Z,4.76
2023-03-15T09:14:15.242Z,4.70
2023-03-15T09:15:15.224Z,4.55
2023-03-15T09:16:15.934Z,4.47
2023-03-15T09:17:15.187Z,4.52
2023-03-15T09:18:15.141Z,4.57
2023-03-15T09:19:15.715Z,4.65
2023-03-15T09:20:15.143Z,4.76
2023-03-15T09:21:15.971Z,4.80
2023-03-15T09:22:17.212Z,4.84
2023-03-15T09:23:16.150Z,4.95
2023-03-15T09:24:15.067Z,5.02
2023-03-15T09:25:15.085Z,5.10
2023-03-15T09:26:16.026Z,5.10
2023-03-15T09:27:15.103Z,4.96
2023-03-15T09:28:15.836Z,4.92
2023-03-15T09:29:14.995Z,4.94
2023-03-15T09:30:15.055Z,4.92
2023-03-15T09:31:16.078Z,4.89
2023-03-15T09:32:15.231Z,4.92
2023-03-15T09:33:15.531Z,4.95
2023-03-15T09:34:15.187Z,4.98
2023-03-15T09:35:14.951Z,5.05
2023-03-15T09:36:15.331Z,5.09
2023-03-15T09:37:15.973Z,5.16
2023-03-15T09:38:14.984Z,5.17
2023-03-15T09:39:14.917Z,5.12
2023-03-15T09:40:14.894Z,5.13
2023-03-15T09:41:14.885Z,5.19
2023-03-15T09:42:14.872Z,5.25
2023-03-15T09:43:14.842Z,5.35
2023-03-15T09:44:14.895Z,5.43
2023-03-15T09:45:14.854Z,5.49
2023-03-15T09:46:14.939Z,5.50
2023-03-15T09:47:15.023Z,5.59
2023-03-15T09:48:14.876Z,5.67
2023-03-15T09:49:14.811Z,5.78
2023-03-15T09:50:15.720Z,5.86
2023-03-15T09:51:14.839Z,5.98
2023-03-15T09:52:14.740Z,5.98
2023-03-15T09:53:14.794Z,5.98
2023-03-15T09:54:15.470Z,6.03
2023-03-15T09:55:16.710Z,6.10
2023-03-15T09:56:15.703Z,6.16
2023-03-15T09:57:14.737Z,6.21
2023-03-15T09:58:15.513Z,6.19
2023-03-15T09:59:14.625Z,6.25
2023-03-15T10:00:14.766Z,6.11
2023-03-15T10:01:14.775Z,6.01
2023-03-15T10:02:15.618Z,5.93
2023-03-15T10:03:14.647Z,5.98
2023-03-15T10:04:14.600Z,6.01
2023-03-15T10:05:14.557Z,6.03
2023-03-15T10:06:14.691Z,6.06
2023-03-15T10:07:14.537Z,5.98
2023-03-15T10:08:14.518Z,5.89
2023-03-15T10:09:15.486Z,5.86
2023-03-15T10:10:14.643Z,5.86
2023-03-15T10:11:14.520Z,5.83
2023-03-15T10:12:15.420Z,5.91
2023-03-15T10:13:14.434Z,5.95
2023-03-15T10:14:14.440Z,5.98
2023-03-15T10:15:15.134Z,6.11
2023-03-15T10:16:15.363Z,6.09
2023-03-15T10:17:14.439Z,5.98
2023-03-15T10:18:14.360Z,6.04
2023-03-15T10:19:14.353Z,6.11
2023-03-15T10:20:14.420Z,6.21
2023-03-15T10:21:14.351Z,6.35
2023-03-15T10:22:14.385Z,6.48
2023-03-15T10:23:14.362Z,6.59
2023-03-15T10:24:14.776Z,6.71
2023-03-15T10:25:14.687Z,6.56
2023-03-15T10:26:15.364Z,6.43
2023-03-15T10:27:14.255Z,6.53
2023-03-15T10:28:15.170Z,6.62
2023-03-15T10:29:14.231Z,6.36
2023-03-15T10:30:14.302Z,6.18
2023-03-15T10:31:25.623Z,6.19
2023-03-15T10:32:15.195Z,6.11
2023-03-15T10:33:14.255Z,6.00
2023-03-15T10:34:14.226Z,5.92
2023-03-15T10:35:14.201Z,5.82
2023-03-15T10:36:14.285Z,5.77
2023-03-15T10:37:15.328Z,5.77
2023-03-15T10:38:15.226Z,5.74
2023-03-15T10:39:14.124Z,5.73
2023-03-15T10:40:14.849Z,5.78
2023-03-15T10:41:17.858Z,5.82
2023-03-15T10:42:15.078Z,5.86
2023-03-15T10:43:14.059Z,5.78
2023-03-15T10:44:14.025Z,5.66
2023-03-15T10:45:14.021Z,5.63
2023-03-15T10:46:14.236Z,5.60
2023-03-15T10:47:23.713Z,5.64
2023-03-15T10:48:15.028Z,5.64
2023-03-15T10:49:14.560Z,5.70
2023-03-15T10:50:14.707Z,5.77
2023-03-15T10:51:13.920Z,5.85
2023-03-15T10:52:13.958Z,5.86
2023-03-15T10:53:14.782Z,5.93
2023-03-15T10:54:13.916Z,6.00
2023-03-15T10:55:13.896Z,6.09
2023-03-15T10:56:14.204Z,6.16
2023-03-15T10:57:13.877Z,6.29
2023-03-15T10:58:13.938Z,6.43
2023-03-15T10:59:13.860Z,6.54
2023-03-15T11:00:14.653Z,6.68
2023-03-15T11:01:13.869Z,6.77
2023-03-15T11:02:14.227Z,6.77
2023-03-15T11:03:14.340Z,6.69
2023-03-15T11:04:13.873Z,6.81
2023-03-15T11:05:13.754Z,6.84
2023-03-15T11:06:14.411Z,6.89
2023-03-15T11:07:13.747Z,6.87
2023-03-15T11:08:13.728Z,6.79
2023-03-15T11:09:13.730Z,6.71
2023-03-15T11:10:13.864Z,6.63
2023-03-15T11:11:14.112Z,6.62
2023-03-15T11:12:13.750Z,6.69
2023-03-15T11:13:13.687Z,6.66
2023-03-15T11:14:13.671Z,6.59
2023-03-15T11:15:13.664Z,6.61
2023-03-15T11:16:13.735Z,6.59
2023-03-15T11:17:13.752Z,6.48
2023-03-15T11:18:13.602Z,6.51
2023-03-15T11:19:14.158Z,6.58
2023-03-15T11:20:13.611Z,6.53
2023-03-15T11:21:13.584Z,6.58
2023-03-15T11:22:13.566Z,6.63
2023-03-15T11:23:13.505Z,6.58
2023-03-15T11:24:13.655Z,6.51
2023-03-15T11:25:13.589Z,6.51
2023-03-15T11:26:19.066Z,6.54
2023-03-15T11:27:15.653Z,6.53
2023-03-15T11:28:14.536Z,6.38
2023-03-15T11:29:14.423Z,6.33
2023-03-15T11:30:14.332Z,6.35
2023-03-15T11:31:13.566Z,6.38
2023-03-15T11:32:13.498Z,6.36
2023-03-15T11:33:13.379Z,6.43
2023-03-15T11:34:13.392Z,6.53
2023-03-15T11:35:13.363Z,6.65
2023-03-15T11:36:14.374Z,6.72
2023-03-15T11:37:13.395Z,6.81
2023-03-15T11:38:15.312Z,6.87
2023-03-15T11:39:13.321Z,6.95
2023-03-15T11:40:15.520Z,7.01
2023-03-15T11:41:13.300Z,7.15
2023-03-15T11:42:13.291Z,7.16
2023-03-15T11:43:13.586Z,7.16
2023-03-15T11:44:13.295Z,7.16
2023-03-15T11:45:14.449Z,7.20
2023-03-15T11:46:13.359Z,7.17
2023-03-15T11:47:13.218Z,7.15
2023-03-15T11:48:13.199Z,7.23
2023-03-15T11:49:14.050Z,7.20
2023-03-15T11:50:13.207Z,7.17
2023-03-15T11:51:13.333Z,7.17
2023-03-15T11:52:13.152Z,7.27
2023-03-15T11:53:13.232Z,7.37
2023-03-15T11:54:14.078Z,7.45
2023-03-15T11:55:13.111Z,7.44
2023-03-15T11:56:13.439Z,7.40
2023-03-15T11:57:13.194Z,7.29
2023-03-15T11:58:13.110Z,7.23
2023-03-15T11:59:13.119Z,7.31
2023-03-15T12:00:13.183Z,7.45
2023-03-15T12:01:13.105Z,7.47
2023-03-15T12:02:13.207Z,7.56
2023-03-15T12:03:13.190Z,7.60
2023-03-15T12:04:15.016Z,7.67
2023-03-15T12:05:18.367Z,7.77
2023-03-15T12:06:13.982Z,7.63
2023-03-15T12:07:12.974Z,7.52
2023-03-15T12:08:12.974Z,7.47
2023-03-15T12:09:13.061Z,7.66
2023-03-15T12:10:14.075Z,7.72
2023-03-15T12:11:13.205Z,7.63
2023-03-15T12:12:12.922Z,7.62
2023-03-15T12:13:12.867Z,7.71
2023-03-15T12:14:13.509Z,7.77
2023-03-15T12:15:12.845Z,7.84
2023-03-15T12:16:13.671Z,7.89
2023-03-15T12:17:12.800Z,7.89
2023-03-15T12:18:13.824Z,7.90
2023-03-15T12:19:13.788Z,7.93
2023-03-15T12:20:13.637Z,7.92
2023-03-15T12:21:12.766Z,8.00
2023-03-15T12:22:12.776Z,8.08
2023-03-15T12:23:12.791Z,8.07
2023-03-15T12:24:12.713Z,8.04
2023-03-15T12:25:12.752Z,7.93
2023-03-15T12:26:12.793Z,7.99
2023-03-15T12:27:14.137Z,8.08
2023-03-15T12:28:13.104Z,8.00
2023-03-15T12:29:40.495Z,8.04
2023-03-15T12:30:12.673Z,7.93
2023-03-15T12:31:12.655Z,7.89
2023-03-15T12:32:14.095Z,7.82
2023-03-15T12:33:12.652Z,7.92
2023-03-15T12:34:12.664Z,7.99
2023-03-15T12:35:15.145Z,7.97
2023-03-15T12:36:12.568Z,8.07
2023-03-15T12:37:12.582Z,8.08
2023-03-15T12:38:12.542Z,8.08
2023-03-15T12:39:12.796Z,8.15
2023-03-15T12:40:12.510Z,8.11
2023-03-15T12:41:12.625Z,8.04
2023-03-15T12:42:13.965Z,8.02
2023-03-15T12:43:12.648Z,8.00
2023-03-15T12:44:12.476Z,7.94
2023-03-15T12:45:12.512Z,7.77
2023-03-15T12:46:12.445Z,7.60
2023-03-15T12:47:12.553Z,7.49
2023-03-15T12:48:13.343Z,7.62
2023-03-15T12:49:12.514Z,7.53
2023-03-15T12:50:12.500Z,7.37
2023-03-15T12:51:12.374Z,7.29
2023-03-15T12:52:12.464Z,7.29
2023-03-15T12:53:12.342Z,7.26
2023-03-15T12:54:12.334Z,7.22
2023-03-15T12:55:12.339Z,7.07
2023-03-15T12:56:13.247Z,6.98
2023-03-15T12:57:12.495Z,6.46
2023-03-15T12:58:12.264Z,6.33
2023-03-15T12:59:12.253Z,6.21
2023-03-15T13:00:12.296Z,6.18
2023-03-15T13:01:12.330Z,6.14
2023-03-15T13:02:12.230Z,6.04
2023-03-15T13:03:12.246Z,6.11
2023-03-15T13:04:12.252Z,6.18
2023-03-15T13:05:12.608Z,6.26
2023-03-15T13:06:12.378Z,6.46
2023-03-15T13:07:12.309Z,6.47
2023-03-15T13:08:12.193Z,6.50
2023-03-15T13:09:12.194Z,6.59
2023-03-15T13:10:12.210Z,5.93
2023-03-15T13:11:12.178Z,5.50
2023-03-15T13:12:12.133Z,5.25
2023-03-15T13:13:12.190Z,4.96
2023-03-15T13:14:12.053Z,4.88
2023-03-15T13:15:12.088Z,4.61
2023-03-15T13:16:12.115Z,4.54
2023-03-15T13:17:12.114Z,4.55
2023-03-15T13:18:12.053Z,4.61